sensor_id;sensor_type;location;lat;lon;timestamp;pressure;altitude;pressure_sealevel;temperature;humidity
11395;BME280;5753;54.402;10.220;2022-11-15T00:00:55;101221.50;;;16.68;44.12
11395;BME280;5753;54.402;10.220;2022-11-15T00:03:24;101215.44;;;16.57;44.39
11395;BME280;5753;54.402;10.220;2022-11-15T00:05:51;101203.28;;;16.50;44.48
11395;BME280;5753;54.402;10.220;2022-11-15T00:08:18;101199.78;;;16.77;43.69
11395;BME280;5753;54.402;10.220;2022-11-15T00:11:00;101195.50;;;16.57;44.67
11395;BME280;5753;54.402;10.220;2022-11-15T00:13:27;101198.09;;;16.68;44.08
11395;BME280;5753;54.402;10.220;2022-11-15T00:15:57;101196.34;;;16.73;43.75
11395;BME280;5753;54.402;10.220;2022-11-15T00:18:24;101203.28;;;16.68;43.52
11395;BME280;5753;54.402;10.220;2022-11-15T00:20:50;101200.69;;;16.54;44.06
11395;BME280;5753;54.402;10.220;2022-11-15T00:23:16;101193.75;;;16.61;43.67
11395;BME280;5753;54.402;10.220;2022-11-15T00:25:42;101185.09;;;16.48;43.70
11395;BME280;5753;54.402;10.220;2022-11-15T00:28:09;101182.47;;;16.53;43.55
11395;BME280;5753;54.402;10.220;2022-11-15T00:30:35;101192.13;;;16.11;44.48
11395;BME280;5753;54.402;10.220;2022-11-15T00:33:05;101196.44;;;16.14;44.91
11395;BME280;5753;54.402;10.220;2022-11-15T00:35:32;101196.38;;;16.41;44.18
11395;BME280;5753;54.402;10.220;2022-11-15T00:37:59;101197.31;;;15.94;45.32
11395;BME280;5753;54.402;10.220;2022-11-15T00:40:26;101199.91;;;15.68;45.94
11395;BME280;5753;54.402;10.220;2022-11-15T00:42:52;101186.03;;;16.17;43.93
11395;BME280;5753;54.402;10.220;2022-11-15T00:45:18;101181.72;;;16.16;43.71
11395;BME280;5753;54.402;10.220;2022-11-15T00:47:45;101190.38;;;16.12;43.38
11395;BME280;5753;54.402;10.220;2022-11-15T00:50:12;101195.56;;;16.16;43.65
11395;BME280;5753;54.402;10.220;2022-11-15T00:52:39;101198.16;;;16.01;43.82
11395;BME280;5753;54.402;10.220;2022-11-15T00:55:05;101194.72;;;15.87;44.51
11395;BME280;5753;54.402;10.220;2022-11-15T00:57:31;101192.97;;;15.95;43.86
11395;BME280;5753;54.402;10.220;2022-11-15T00:59:57;101175.66;;;15.97;43.24
11395;BME280;5753;54.402;10.220;2022-11-15T01:02:23;101176.50;;;15.99;42.74
11395;BME280;5753;54.402;10.220;2022-11-15T01:04:49;101168.72;;;15.93;43.37
11395;BME280;5753;54.402;10.220;2022-11-15T01:07:15;101173.91;;;16.17;43.34
11395;BME280;5753;54.402;10.220;2022-11-15T01:09:41;101175.66;;;15.89;44.75
11395;BME280;5753;54.402;10.220;2022-11-15T01:12:08;101172.19;;;15.81;45.52
11395;BME280;5753;54.402;10.220;2022-11-15T01:14:34;101170.44;;;15.97;45.23
11395;BME280;5753;54.402;10.220;2022-11-15T01:17:00;101173.00;;;16.33;43.93
11395;BME280;5753;54.402;10.220;2022-11-15T01:19:26;101167.84;;;16.15;43.57
11395;BME280;5753;54.402;10.220;2022-11-15T01:21:52;101168.69;;;16.03;44.04
11395;BME280;5753;54.402;10.220;2022-11-15T01:24:18;101170.44;;;16.03;43.63
11395;BME280;5753;54.402;10.220;2022-11-15T01:26:44;101175.66;;;15.97;42.71
11395;BME280;5753;54.402;10.220;2022-11-15T01:29:10;101174.78;;;15.84;43.98
11395;BME280;5753;54.402;10.220;2022-11-15T01:31:36;101180.84;;;15.97;43.89
11395;BME280;5753;54.402;10.220;2022-11-15T01:34:02;101172.19;;;15.95;43.89
11395;BME280;5753;54.402;10.220;2022-11-15T01:36:29;101169.59;;;15.90;43.63
11395;BME280;5753;54.402;10.220;2022-11-15T01:38:56;101170.44;;;15.97;43.79
11395;BME280;5753;54.402;10.220;2022-11-15T01:41:31;101172.19;;;15.83;44.95
11395;BME280;5753;54.402;10.220;2022-11-15T01:46:57;101154.84;;;15.98;44.25
11395;BME280;5753;54.402;10.220;2022-11-15T01:49:24;101151.38;;;16.01;44.11
11395;BME280;5753;54.402;10.220;2022-11-15T01:51:51;101157.44;;;16.01;43.92
11395;BME280;5753;54.402;10.220;2022-11-15T01:54:21;101156.56;;;16.05;44.24
11395;BME280;5753;54.402;10.220;2022-11-15T01:56:52;101151.38;;;16.18;43.64
11395;BME280;5753;54.402;10.220;2022-11-15T01:59:19;101146.16;;;16.22;43.74
11395;BME280;5753;54.402;10.220;2022-11-15T02:01:45;101139.22;;;16.21;44.64
11395;BME280;5753;54.402;10.220;2022-11-15T02:04:13;101133.94;;;16.38;43.66
11395;BME280;5753;54.402;10.220;2022-11-15T02:06:42;101134.88;;;16.23;44.00
11395;BME280;5753;54.402;10.220;2022-11-15T02:09:09;101119.25;;;16.29;43.41
11395;BME280;5753;54.402;10.220;2022-11-15T02:11:36;101123.63;;;16.06;44.75
11395;BME280;5753;54.402;10.220;2022-11-15T02:14:03;101118.41;;;16.21;43.97
11395;BME280;5753;54.402;10.220;2022-11-15T02:30:42;101127.03;;;16.37;44.48
11395;BME280;5753;54.402;10.220;2022-11-15T02:36:06;101126.97;;;16.48;44.20
11395;BME280;5753;54.402;10.220;2022-11-15T02:38:59;101134.75;;;16.54;44.84
11395;BME280;5753;54.402;10.220;2022-11-15T02:41:38;101120.91;;;16.44;44.52
11395;BME280;5753;54.402;10.220;2022-11-15T02:44:17;101125.41;;;15.89;45.88
11395;BME280;5753;54.402;10.220;2022-11-15T02:46:59;101127.09;;;16.06;45.99
11395;BME280;5753;54.402;10.220;2022-11-15T02:50:08;101119.94;;;16.77;44.61
11395;BME280;5753;54.402;10.220;2022-11-15T02:52:35;101121.91;;;16.11;45.75
11395;BME280;5753;54.402;10.220;2022-11-15T02:55:02;101116.75;;;15.82;46.35
11395;BME280;5753;54.402;10.220;2022-11-15T03:00:15;101116.53;;;16.63;44.26
11395;BME280;5753;54.402;10.220;2022-11-15T03:08:37;101102.72;;;16.43;44.02
11395;BME280;5753;54.402;10.220;2022-11-15T03:11:14;101095.91;;;16.10;44.62
11395;BME280;5753;54.402;10.220;2022-11-15T03:19:38;101107.19;;;15.40;47.00
11395;BME280;5753;54.402;10.220;2022-11-15T03:22:11;101107.16;;;16.04;45.80
11395;BME280;5753;54.402;10.220;2022-11-15T03:24:39;101092.41;;;16.06;45.41
11395;BME280;5753;54.402;10.220;2022-11-15T03:27:08;101095.97;;;15.62;46.81
11395;BME280;5753;54.402;10.220;2022-11-15T03:29:39;101095.09;;;15.71;46.50
11395;BME280;5753;54.402;10.220;2022-11-15T03:32:12;101098.53;;;15.15;47.82
11395;BME280;5753;54.402;10.220;2022-11-15T03:34:51;101089.75;;;16.32;45.01
11395;BME280;5753;54.402;10.220;2022-11-15T03:37:22;101093.22;;;16.32;44.80
11395;BME280;5753;54.402;10.220;2022-11-15T03:39:50;101086.34;;;16.15;45.13
11395;BME280;5753;54.402;10.220;2022-11-15T03:47:22;101078.63;;;15.83;45.93
11395;BME280;5753;54.402;10.220;2022-11-15T03:49:53;101077.69;;;16.17;44.81
11395;BME280;5753;54.402;10.220;2022-11-15T03:52:22;101068.06;;;16.31;44.03
11395;BME280;5753;54.402;10.220;2022-11-15T03:54:50;101072.47;;;16.22;44.53
11395;BME280;5753;54.402;10.220;2022-11-15T03:57:18;101076.69;;;16.43;44.28
11395;BME280;5753;54.402;10.220;2022-11-15T03:59:44;101082.03;;;16.12;44.74
11395;BME280;5753;54.402;10.220;2022-11-15T04:02:10;101074.16;;;16.29;44.16
11395;BME280;5753;54.402;10.220;2022-11-15T04:04:36;101077.69;;;16.06;44.79
11395;BME280;5753;54.402;10.220;2022-11-15T04:07:02;101078.63;;;15.86;45.26
11395;BME280;5753;54.402;10.220;2022-11-15T04:09:28;101082.91;;;16.02;44.69
11395;BME280;5753;54.402;10.220;2022-11-15T04:11:55;101084.63;;;16.03;44.32
11395;BME280;5753;54.402;10.220;2022-11-15T04:14:21;101081.16;;;15.99;44.89
11395;BME280;5753;54.402;10.220;2022-11-15T04:16:47;101079.50;;;15.82;45.48
11395;BME280;5753;54.402;10.220;2022-11-15T04:19:13;101080.38;;;15.76;45.76
11395;BME280;5753;54.402;10.220;2022-11-15T04:21:57;101076.88;;;15.45;46.82
11395;BME280;5753;54.402;10.220;2022-11-15T04:24:42;101084.66;;;15.95;45.49
11395;BME280;5753;54.402;10.220;2022-11-15T04:27:08;101087.25;;;16.09;45.26
11395;BME280;5753;54.402;10.220;2022-11-15T04:29:34;101090.72;;;15.96;45.58
11395;BME280;5753;54.402;10.220;2022-11-15T04:32:05;101080.31;;;15.96;45.54
11395;BME280;5753;54.402;10.220;2022-11-15T04:34:32;101080.34;;;15.90;45.63
11395;BME280;5753;54.402;10.220;2022-11-15T04:36:58;101082.03;;;15.97;45.43
11395;BME280;5753;54.402;10.220;2022-11-15T04:39:42;101085.53;;;15.93;45.80
11395;BME280;5753;54.402;10.220;2022-11-15T04:42:09;101082.91;;;16.03;45.29
11395;BME280;5753;54.402;10.220;2022-11-15T04:44:35;101082.97;;;15.81;46.09
11395;BME280;5753;54.402;10.220;2022-11-15T04:47:02;101083.75;;;16.07;45.36
11395;BME280;5753;54.402;10.220;2022-11-15T04:49:28;101081.16;;;16.18;44.94
11395;BME280;5753;54.402;10.220;2022-11-15T04:51:54;101092.47;;;15.82;46.07
11395;BME280;5753;54.402;10.220;2022-11-15T04:54:20;101092.47;;;15.56;46.58
11395;BME280;5753;54.402;10.220;2022-11-15T04:56:46;101090.72;;;15.56;46.42
11395;BME280;5753;54.402;10.220;2022-11-15T04:59:12;101093.38;;;15.74;46.11
11395;BME280;5753;54.402;10.220;2022-11-15T05:01:38;101097.66;;;15.95;45.54
11395;BME280;5753;54.402;10.220;2022-11-15T05:04:04;101091.59;;;15.96;45.49
11395;BME280;5753;54.402;10.220;2022-11-15T05:06:50;101090.69;;;16.11;45.13
11395;BME280;5753;54.402;10.220;2022-11-15T05:09:18;101089.91;;;15.59;46.37
11395;BME280;5753;54.402;10.220;2022-11-15T05:11:44;101095.91;;;15.96;45.23
11395;BME280;5753;54.402;10.220;2022-11-15T05:14:10;101089.81;;;16.17;44.82
11395;BME280;5753;54.402;10.220;2022-11-15T05:16:37;101092.44;;;16.03;45.07
11395;BME280;5753;54.402;10.220;2022-11-15T05:19:03;101092.44;;;16.09;44.76
11395;BME280;5753;54.402;10.220;2022-11-15T05:21:29;101093.28;;;16.06;44.64
11395;BME280;5753;54.402;10.220;2022-11-15T05:23:56;101094.09;;;16.27;44.46
11395;BME280;5753;54.402;10.220;2022-11-15T05:26:22;101088.94;;;16.07;44.57
11395;BME280;5753;54.402;10.220;2022-11-15T05:28:56;101103.75;;;15.85;44.86
11395;BME280;5753;54.402;10.220;2022-11-15T05:31:23;101090.66;;;16.22;44.22
11395;BME280;5753;54.402;10.220;2022-11-15T05:33:50;101086.34;;;16.04;44.40
11395;BME280;5753;54.402;10.220;2022-11-15T05:36:35;101085.50;;;15.97;44.56
11395;BME280;5753;54.402;10.220;2022-11-15T05:39:04;101090.72;;;15.96;44.66
11395;BME280;5753;54.402;10.220;2022-11-15T05:41:40;101107.44;;;13.80;50.06
11395;BME280;5753;54.402;10.220;2022-11-15T05:44:10;101109.75;;;15.05;47.28
11395;BME280;5753;54.402;10.220;2022-11-15T05:46:38;101110.66;;;15.37;46.05
11395;BME280;5753;54.402;10.220;2022-11-15T05:49:09;101105.50;;;15.72;45.59
11395;BME280;5753;54.402;10.220;2022-11-15T05:51:36;101114.13;;;15.24;46.50
11395;BME280;5753;54.402;10.220;2022-11-15T05:54:02;101121.84;;;15.01;47.25
11395;BME280;5753;54.402;10.220;2022-11-15T05:56:29;101110.72;;;15.65;45.44
11395;BME280;5753;54.402;10.220;2022-11-15T05:58:56;101111.53;;;15.49;46.36
11395;BME280;5753;54.402;10.220;2022-11-15T06:01:25;101098.44;;;16.28;45.29
11395;BME280;5753;54.402;10.220;2022-11-15T06:03:52;101099.94;;;16.87;44.45
11395;BME280;5753;54.402;10.220;2022-11-15T06:06:18;101100.75;;;16.95;44.14
11395;BME280;5753;54.402;10.220;2022-11-15T06:08:44;101097.97;;;17.22;43.84
11395;BME280;5753;54.402;10.220;2022-11-15T06:11:10;101098.72;;;17.38;43.78
11395;BME280;5753;54.402;10.220;2022-11-15T06:13:36;101087.19;;;17.65;43.22
11395;BME280;5753;54.402;10.220;2022-11-15T06:16:02;101083.09;;;17.35;44.07
11395;BME280;5753;54.402;10.220;2022-11-15T06:18:31;101076.06;;;17.45;44.07
11395;BME280;5753;54.402;10.220;2022-11-15T06:20:59;101073.41;;;17.55;44.11
11395;BME280;5753;54.402;10.220;2022-11-15T06:23:26;101095.22;;;17.39;44.37
11395;BME280;5753;54.402;10.220;2022-11-15T06:25:52;101097.66;;;17.62;43.72
11395;BME280;5753;54.402;10.220;2022-11-15T06:28:18;101097.66;;;17.62;43.55
11395;BME280;5753;54.402;10.220;2022-11-15T06:30:44;101100.91;;;17.87;43.45
11395;BME280;5753;54.402;10.220;2022-11-15T06:33:10;101100.16;;;17.76;43.46
11395;BME280;5753;54.402;10.220;2022-11-15T06:35:37;101100.06;;;17.85;43.17
11395;BME280;5753;54.402;10.220;2022-11-15T06:38:08;101097.50;;;17.80;43.20
11395;BME280;5753;54.402;10.220;2022-11-15T06:40:36;101098.38;;;17.81;43.48
11395;BME280;5753;54.402;10.220;2022-11-15T06:43:03;101101.69;;;17.98;43.06
11395;BME280;5753;54.402;10.220;2022-11-15T06:45:30;101095.88;;;17.66;43.90
11395;BME280;5753;54.402;10.220;2022-11-15T06:47:57;101098.53;;;17.62;44.14
11395;BME280;5753;54.402;10.220;2022-11-15T06:50:23;101101.38;;;17.32;45.03
11395;BME280;5753;54.402;10.220;2022-11-15T06:52:49;101100.16;;;17.76;44.09
11395;BME280;5753;54.402;10.220;2022-11-15T06:55:15;101107.28;;;17.55;44.53
11395;BME280;5753;54.402;10.220;2022-11-15T06:57:51;101112.16;;;17.92;44.24
11395;BME280;5753;54.402;10.220;2022-11-15T07:00:19;101104.00;;;18.25;43.35
11395;BME280;5753;54.402;10.220;2022-11-15T07:02:46;101114.00;;;17.84;43.98
11395;BME280;5753;54.402;10.220;2022-11-15T07:05:14;101128.59;;;18.03;43.83
11395;BME280;5753;54.402;10.220;2022-11-15T07:07:40;101125.16;;;18.00;44.34
11395;BME280;5753;54.402;10.220;2022-11-15T07:10:08;101125.16;;;18.00;44.00
11395;BME280;5753;54.402;10.220;2022-11-15T07:12:34;101124.81;;;17.34;45.44
11395;BME280;5753;54.402;10.220;2022-11-15T07:15:00;101130.38;;;17.97;44.71
11395;BME280;5753;54.402;10.220;2022-11-15T07:17:26;101132.53;;;17.44;45.41
11395;BME280;5753;54.402;10.220;2022-11-15T07:19:52;101133.59;;;18.23;44.20
11395;BME280;5753;54.402;10.220;2022-11-15T07:22:18;101143.88;;;18.37;44.34
11395;BME280;5753;54.402;10.220;2022-11-15T07:24:44;101142.06;;;18.45;44.09
11395;BME280;5753;54.402;10.220;2022-11-15T07:27:10;101132.38;;;18.53;43.99
11395;BME280;5753;54.402;10.220;2022-11-15T07:29:36;101136.91;;;18.37;44.36
11395;BME280;5753;54.402;10.220;2022-11-15T07:32:03;101141.00;;;18.61;43.89
11395;BME280;5753;54.402;10.220;2022-11-15T07:34:29;101141.84;;;18.65;44.07
11395;BME280;5753;54.402;10.220;2022-11-15T07:36:55;101150.63;;;18.56;44.26
11395;BME280;5753;54.402;10.220;2022-11-15T07:39:21;101149.06;;;18.40;44.89
11395;BME280;5753;54.402;10.220;2022-11-15T07:41:47;101156.19;;;18.25;45.30
11395;BME280;5753;54.402;10.220;2022-11-15T07:44:15;101153.28;;;17.59;46.41
11395;BME280;5753;54.402;10.220;2022-11-15T07:46:41;101137.81;;;18.35;45.44
11395;BME280;5753;54.402;10.220;2022-11-15T07:49:07;101145.16;;;18.01;46.15
11395;BME280;5753;54.402;10.220;2022-11-15T07:51:33;101154.50;;;18.20;45.39
11395;BME280;5753;54.402;10.220;2022-11-15T07:53:59;101156.53;;;17.87;45.95
11395;BME280;5753;54.402;10.220;2022-11-15T07:56:26;101148.38;;;18.22;45.58
11395;BME280;5753;54.402;10.220;2022-11-15T07:58:52;101151.34;;;18.70;44.31
11395;BME280;5753;54.402;10.220;2022-11-15T08:01:18;101150.94;;;18.29;45.62
11395;BME280;5753;54.402;10.220;2022-11-15T08:03:44;101145.47;;;18.50;45.50
11395;BME280;5753;54.402;10.220;2022-11-15T08:06:10;101148.59;;;18.81;44.71
11395;BME280;5753;54.402;10.220;2022-11-15T08:08:36;101143.38;;;18.81;44.68
11395;BME280;5753;54.402;10.220;2022-11-15T08:11:02;101149.56;;;18.72;45.11
11395;BME280;5753;54.402;10.220;2022-11-15T08:13:37;101147.22;;;19.17;44.18
11395;BME280;5753;54.402;10.220;2022-11-15T08:16:05;101138.16;;;18.79;45.07
11395;BME280;5753;54.402;10.220;2022-11-15T08:18:31;101142.47;;;18.83;45.26
11395;BME280;5753;54.402;10.220;2022-11-15T08:21:01;101129.63;;;19.28;44.40
11395;BME280;5753;54.402;10.220;2022-11-15T08:23:28;101140.91;;;18.70;45.42
11395;BME280;5753;54.402;10.220;2022-11-15T08:26:02;101143.88;;;19.09;44.65
11395;BME280;5753;54.402;10.220;2022-11-15T08:28:29;101141.91;;;18.57;45.83
11395;BME280;5753;54.402;10.220;2022-11-15T08:30:55;101137.13;;;18.93;45.22
11395;BME280;5753;54.402;10.220;2022-11-15T08:33:21;101136.88;;;19.11;44.71
11395;BME280;5753;54.402;10.220;2022-11-15T08:35:47;101140.22;;;19.19;44.44
11395;BME280;5753;54.402;10.220;2022-11-15T08:38:14;101143.16;;;18.22;46.31
11395;BME280;5753;54.402;10.220;2022-11-15T08:40:40;101146.88;;;18.78;45.59
11395;BME280;5753;54.402;10.220;2022-11-15T08:43:07;101138.16;;;19.42;44.30
11395;BME280;5753;54.402;10.220;2022-11-15T08:45:34;101139.59;;;19.62;43.95
11395;BME280;5753;54.402;10.220;2022-11-15T08:48:02;101135.41;;;19.50;44.43
11395;BME280;5753;54.402;10.220;2022-11-15T08:50:29;101144.03;;;18.97;45.40
11395;BME280;5753;54.402;10.220;2022-11-15T08:52:55;101137.25;;;19.43;44.61
11395;BME280;5753;54.402;10.220;2022-11-15T08:55:21;101131.13;;;19.46;44.73
11395;BME280;5753;54.402;10.220;2022-11-15T08:57:47;101135.66;;;19.89;44.00
11395;BME280;5753;54.402;10.220;2022-11-15T09:00:13;101134.66;;;19.43;44.14
11395;BME280;5753;54.402;10.220;2022-11-15T09:02:40;101143.19;;;19.56;44.63
11395;BME280;5753;54.402;10.220;2022-11-15T09:05:07;101136.19;;;19.57;44.60
11395;BME280;5753;54.402;10.220;2022-11-15T09:07:33;101143.16;;;19.58;44.41
11395;BME280;5753;54.402;10.220;2022-11-15T09:09:59;101132.75;;;19.52;44.45
11395;BME280;5753;54.402;10.220;2022-11-15T09:12:25;101138.16;;;19.95;43.78
11395;BME280;5753;54.402;10.220;2022-11-15T09:14:52;101140.22;;;20.24;43.26
11395;BME280;5753;54.402;10.220;2022-11-15T09:17:18;101126.41;;;20.16;43.39
11395;BME280;5753;54.402;10.220;2022-11-15T09:19:44;101122.97;;;19.66;44.74
11395;BME280;5753;54.402;10.220;2022-11-15T09:22:10;101126.34;;;20.20;43.62
11395;BME280;5753;54.402;10.220;2022-11-15T09:24:36;101134.75;;;20.37;43.47
11395;BME280;5753;54.402;10.220;2022-11-15T09:27:03;101134.19;;;20.20;43.68
11395;BME280;5753;54.402;10.220;2022-11-15T09:29:29;101141.25;;;20.15;44.02
11395;BME280;5753;54.402;10.220;2022-11-15T09:31:55;101139.03;;;20.43;43.38
11395;BME280;5753;54.402;10.220;2022-11-15T09:34:21;101132.25;;;19.82;44.13
11395;BME280;5753;54.402;10.220;2022-11-15T09:36:47;101133.38;;;20.17;43.70
11395;BME280;5753;54.402;10.220;2022-11-15T09:39:13;101132.19;;;20.34;43.51
11395;BME280;5753;54.402;10.220;2022-11-15T09:41:58;101131.53;;;20.66;42.69
11395;BME280;5753;54.402;10.220;2022-11-15T09:50:12;101140.38;;;20.62;43.43
11395;BME280;5753;54.402;10.220;2022-11-15T09:52:43;101147.97;;;20.74;42.84
11395;BME280;5753;54.402;10.220;2022-11-15T09:55:11;101135.63;;;20.36;43.85
11395;BME280;5753;54.402;10.220;2022-11-15T10:00:38;101144.03;;;20.07;44.87
11395;BME280;5753;54.402;10.220;2022-11-15T10:03:30;101146.88;;;19.41;45.92
11395;BME280;5753;54.402;10.220;2022-11-15T10:06:02;101143.22;;;19.52;45.52
11395;BME280;5753;54.402;10.220;2022-11-15T10:11:29;101132.38;;;19.76;44.49
11395;BME280;5753;54.402;10.220;2022-11-15T10:14:10;101119.09;;;20.34;43.97
11395;BME280;5753;54.402;10.220;2022-11-15T10:22:30;101107.28;;;20.13;43.77
11395;BME280;5753;54.402;10.220;2022-11-15T10:25:11;101117.00;;;20.53;43.60
11395;BME280;5753;54.402;10.220;2022-11-15T10:27:40;101110.22;;;20.43;43.54
11395;BME280;5753;54.402;10.220;2022-11-15T10:30:16;101103.31;;;20.79;43.41
11395;BME280;5753;54.402;10.220;2022-11-15T10:32:45;101098.50;;;20.99;43.39
11395;BME280;5753;54.402;10.220;2022-11-15T10:35:28;101117.84;;;20.07;44.33
11395;BME280;5753;54.402;10.220;2022-11-15T10:38:09;101114.50;;;18.19;48.75
11395;BME280;5753;54.402;10.220;2022-11-15T10:40:37;101104.44;;;19.78;45.57
11395;BME280;5753;54.402;10.220;2022-11-15T10:45:36;101103.19;;;20.45;43.29
11395;BME280;5753;54.402;10.220;2022-11-15T10:50:44;101097.50;;;20.66;43.32
11395;BME280;5753;54.402;10.220;2022-11-15T10:53:31;101106.94;;;19.30;45.72
11395;BME280;5753;54.402;10.220;2022-11-15T10:56:03;101109.91;;;20.58;44.01
11395;BME280;5753;54.402;10.220;2022-11-15T11:01:17;101110.66;;;19.71;45.44
11395;BME280;5753;54.402;10.220;2022-11-15T11:09:36;101092.66;;;20.48;43.74
11395;BME280;5753;54.402;10.220;2022-11-15T11:12:09;101087.00;;;20.66;43.78
11395;BME280;5753;54.402;10.220;2022-11-15T11:14:38;101092.09;;;20.74;43.44
11395;BME280;5753;54.402;10.220;2022-11-15T11:17:28;101099.28;;;20.64;43.46
11395;BME280;5753;54.402;10.220;2022-11-15T11:20:01;101091.06;;;21.18;42.49
11395;BME280;5753;54.402;10.220;2022-11-15T11:25:47;101085.81;;;21.18;41.91
11395;BME280;5753;54.402;10.220;2022-11-15T11:36:51;101069.63;;;21.72;41.57
11395;BME280;5753;54.402;10.220;2022-11-15T11:42:16;101062.41;;;21.48;41.66
11395;BME280;5753;54.402;10.220;2022-11-15T11:47:40;101057.41;;;21.39;41.57
11395;BME280;5753;54.402;10.220;2022-11-15T11:50:19;101069.28;;;21.16;42.49
11395;BME280;5753;54.402;10.220;2022-11-15T11:55:33;101051.94;;;20.73;43.04
11395;BME280;5753;54.402;10.220;2022-11-15T11:58:31;101059.25;;;21.67;41.79
11395;BME280;5753;54.402;10.220;2022-11-15T12:01:11;101056.53;;;21.38;41.64
11395;BME280;5753;54.402;10.220;2022-11-15T12:07:00;101051.69;;;21.57;41.09
11395;BME280;5753;54.402;10.220;2022-11-15T12:12:23;101046.47;;;21.20;42.02
11395;BME280;5753;54.402;10.220;2022-11-15T12:14:56;101042.94;;;20.85;42.78
11395;BME280;5753;54.402;10.220;2022-11-15T12:17:25;101042.22;;;21.14;41.96
11395;BME280;5753;54.402;10.220;2022-11-15T12:19:56;101042.69;;;21.33;41.84
11395;BME280;5753;54.402;10.220;2022-11-15T12:22:33;101048.31;;;21.16;42.04
11395;BME280;5753;54.402;10.220;2022-11-15T12:25:22;101034.06;;;20.91;42.73
11395;BME280;5753;54.402;10.220;2022-11-15T12:28:11;101042.22;;;21.51;41.59
11395;BME280;5753;54.402;10.220;2022-11-15T12:30:56;101051.34;;;22.02;41.28
11395;BME280;5753;54.402;10.220;2022-11-15T12:33:39;101038.97;;;21.42;42.00
11395;BME280;5753;54.402;10.220;2022-11-15T12:36:34;101043.88;;;21.18;42.42
11395;BME280;5753;54.402;10.220;2022-11-15T12:39:09;101047.28;;;21.23;42.68
11395;BME280;5753;54.402;10.220;2022-11-15T12:41:40;101042.88;;;21.92;41.67
11395;BME280;5753;54.402;10.220;2022-11-15T12:44:56;101022.00;;;21.55;41.84
11395;BME280;5753;54.402;10.220;2022-11-15T12:47:25;101015.66;;;22.27;40.58
11395;BME280;5753;54.402;10.220;2022-11-15T12:49:51;101017.16;;;22.05;40.88
11395;BME280;5753;54.402;10.220;2022-11-15T12:52:18;101012.31;;;21.89;41.14
11395;BME280;5753;54.402;10.220;2022-11-15T12:54:57;101003.81;;;21.13;42.46
11395;BME280;5753;54.402;10.220;2022-11-15T12:57:31;101000.84;;;21.61;41.89
11395;BME280;5753;54.402;10.220;2022-11-15T13:00:36;101001.16;;;21.15;42.47
11395;BME280;5753;54.402;10.220;2022-11-15T13:03:16;101006.34;;;21.52;41.93
11395;BME280;5753;54.402;10.220;2022-11-15T13:08:09;101009.38;;;21.69;41.52
11395;BME280;5753;54.402;10.220;2022-11-15T13:10:55;101001.66;;;20.95;42.98
11395;BME280;5753;54.402;10.220;2022-11-15T13:13:43;101004.94;;;22.04;41.10
11395;BME280;5753;54.402;10.220;2022-11-15T13:16:09;101001.72;;;21.92;41.06
11395;BME280;5753;54.402;10.220;2022-11-15T13:18:39;100996.41;;;21.95;41.42
11395;BME280;5753;54.402;10.220;2022-11-15T13:21:19;101001.72;;;21.61;41.79
11395;BME280;5753;54.402;10.220;2022-11-15T13:24:05;101004.94;;;22.04;41.41
11395;BME280;5753;54.402;10.220;2022-11-15T13:26:38;101009.78;;;22.47;40.33
11395;BME280;5753;54.402;10.220;2022-11-15T13:29:16;101003.66;;;21.55;41.98
11395;BME280;5753;54.402;10.220;2022-11-15T13:31:43;101001.47;;;22.02;41.04
11395;BME280;5753;54.402;10.220;2022-11-15T13:36:43;100997.75;;;22.40;40.63
11395;BME280;5753;54.402;10.220;2022-11-15T13:39:30;100994.75;;;22.22;40.91
11395;BME280;5753;54.402;10.220;2022-11-15T13:41:57;101000.50;;;22.06;41.30
11395;BME280;5753;54.402;10.220;2022-11-15T13:44:32;100995.31;;;22.04;41.42
11395;BME280;5753;54.402;10.220;2022-11-15T13:47:16;100993.81;;;22.25;40.80
11395;BME280;5753;54.402;10.220;2022-11-15T13:49:44;100974.94;;;22.68;40.25
11395;BME280;5753;54.402;10.220;2022-11-15T13:52:13;100975.97;;;22.36;40.56
11395;BME280;5753;54.402;10.220;2022-11-15T13:55:01;100974.59;;;22.52;40.48
11395;BME280;5753;54.402;10.220;2022-11-15T13:57:48;100967.19;;;22.37;40.63
11395;BME280;5753;54.402;10.220;2022-11-15T14:00:42;100970.16;;;22.26;41.18
11395;BME280;5753;54.402;10.220;2022-11-15T14:03:24;100960.88;;;22.43;40.86
11395;BME280;5753;54.402;10.220;2022-11-15T14:08:29;100959.34;;;22.36;41.07
11395;BME280;5753;54.402;10.220;2022-11-15T14:11:17;100964.03;;;22.26;41.28
11395;BME280;5753;54.402;10.220;2022-11-15T14:16:49;100964.91;;;21.95;41.81
11395;BME280;5753;54.402;10.220;2022-11-15T14:19:35;100966.88;;;21.87;41.60
11395;BME280;5753;54.402;10.220;2022-11-15T14:22:16;100962.47;;;21.24;43.39
11395;BME280;5753;54.402;10.220;2022-11-15T14:24:45;100958.94;;;21.90;42.07
11395;BME280;5753;54.402;10.220;2022-11-15T14:27:19;100949.81;;;22.33;41.08
11395;BME280;5753;54.402;10.220;2022-11-15T14:29:46;100944.25;;;22.14;41.53
11395;BME280;5753;54.402;10.220;2022-11-15T14:32:45;100941.88;;;21.74;42.30
11395;BME280;5753;54.402;10.220;2022-11-15T14:35:18;100948.72;;;21.49;42.90
11395;BME280;5753;54.402;10.220;2022-11-15T14:37:45;100949.81;;;21.06;43.46
11395;BME280;5753;54.402;10.220;2022-11-15T14:40:20;100950.22;;;20.91;44.32
11395;BME280;5753;54.402;10.220;2022-11-15T14:42:48;100939.19;;;20.77;44.40
11395;BME280;5753;54.402;10.220;2022-11-15T14:45:20;100950.09;;;21.31;43.58
11395;BME280;5753;54.402;10.220;2022-11-15T14:47:47;100947.53;;;21.60;42.99
11395;BME280;5753;54.402;10.220;2022-11-15T14:50:19;100947.00;;;21.48;43.21
11395;BME280;5753;54.402;10.220;2022-11-15T14:52:45;100949.59;;;21.49;43.23
11395;BME280;5753;54.402;10.220;2022-11-15T14:55:22;100949.75;;;21.74;43.01